sensor_id;sensor_type;location;lat;lon;timestamp;pressure;altitude;pressure_sealevel;temperature;humidity
74573;BME280;63071;51.526;-0.134;2023-02-15T00:01:51;102274.78;;;24.29;29.78
74573;BME280;63071;51.526;-0.134;2023-02-15T00:04:20;102275.22;;;24.31;29.95
74573;BME280;63071;51.526;-0.134;2023-02-15T00:06:47;102271.56;;;24.35;29.81
74573;BME280;63071;51.526;-0.134;2023-02-15T00:09:12;102263.75;;;24.30;29.67
74573;BME280;63071;51.526;-0.134;2023-02-15T00:11:39;102263.31;;;24.28;29.86
74573;BME280;63071;51.526;-0.134;2023-02-15T00:14:24;102262.56;;;24.28;29.70
74573;BME280;63071;51.526;-0.134;2023-02-15T00:16:51;102255.22;;;24.25;29.91
74573;BME280;63071;51.526;-0.134;2023-02-15T00:19:19;102243.41;;;24.26;29.87
74573;BME280;63071;51.526;-0.134;2023-02-15T00:21:46;102243.75;;;24.24;29.68
74573;BME280;63071;51.526;-0.134;2023-02-15T00:24:14;102239.19;;;24.25;29.80
74573;BME280;63071;51.526;-0.134;2023-02-15T00:26:41;102233.06;;;24.24;29.79
74573;BME280;63071;51.526;-0.134;2023-02-15T00:29:09;102231.53;;;24.23;29.65
74573;BME280;63071;51.526;-0.134;2023-02-15T00:31:35;102226.94;;;24.24;29.79
74573;BME280;63071;51.526;-0.134;2023-02-15T00:34:24;102224.28;;;24.24;29.67
74573;BME280;63071;51.526;-0.134;2023-02-15T00:36:50;102213.94;;;24.22;29.88
74573;BME280;63071;51.526;-0.134;2023-02-15T00:39:17;102203.56;;;24.20;29.72
74573;BME280;63071;51.526;-0.134;2023-02-15T00:41:44;102205.47;;;24.20;29.64
74573;BME280;63071;51.526;-0.134;2023-02-15T00:44:09;102207.38;;;24.19;30.06
74573;BME280;63071;51.526;-0.134;2023-02-15T00:46:35;102202.03;;;24.19;29.87
74573;BME280;63071;51.526;-0.134;2023-02-15T00:49:05;102201.28;;;24.19;29.95
74573;BME280;63071;51.526;-0.134;2023-02-15T00:51:31;102195.50;;;24.17;29.97
74573;BME280;63071;51.526;-0.134;2023-02-15T00:53:57;102192.03;;;24.16;29.82
74573;BME280;63071;51.526;-0.134;2023-02-15T00:56:22;102186.69;;;24.16;29.74
74573;BME280;63071;51.526;-0.134;2023-02-15T00:58:48;102187.81;;;24.15;29.65
74573;BME280;63071;51.526;-0.134;2023-02-15T01:01:17;102183.25;;;24.16;29.54
74573;BME280;63071;51.526;-0.134;2023-02-15T01:03:43;102191.59;;;24.14;29.48
74573;BME280;63071;51.526;-0.134;2023-02-15T01:06:10;102193.50;;;24.14;29.65
74573;BME280;63071;51.526;-0.134;2023-02-15T01:08:36;102196.94;;;24.14;29.48
74573;BME280;63071;51.526;-0.134;2023-02-15T01:11:07;102187.38;;;24.13;29.51
74573;BME280;63071;51.526;-0.134;2023-02-15T01:13:34;102188.47;;;24.12;29.83
74573;BME280;63071;51.526;-0.134;2023-02-15T01:16:00;102193.06;;;24.12;29.76
74573;BME280;63071;51.526;-0.134;2023-02-15T01:18:26;102183.50;;;24.11;29.49
74573;BME280;63071;51.526;-0.134;2023-02-15T01:20:52;102176.94;;;24.08;29.58
74573;BME280;63071;51.526;-0.134;2023-02-15T01:23:18;102170.03;;;24.07;29.64
74573;BME280;63071;51.526;-0.134;2023-02-15T01:25:43;102174.25;;;24.08;29.48
74573;BME280;63071;51.526;-0.134;2023-02-15T01:28:09;102173.47;;;24.08;29.70
74573;BME280;63071;51.526;-0.134;2023-02-15T01:30:34;102175.38;;;24.07;29.71
74573;BME280;63071;51.526;-0.134;2023-02-15T01:33:00;102166.56;;;24.07;29.70
74573;BME280;63071;51.526;-0.134;2023-02-15T01:35:26;102160.47;;;24.06;29.69
74573;BME280;63071;51.526;-0.134;2023-02-15T01:37:52;102153.59;;;24.05;29.62
74573;BME280;63071;51.526;-0.134;2023-02-15T01:40:18;102158.13;;;24.05;29.54
74573;BME280;63071;51.526;-0.134;2023-02-15T01:42:44;102140.13;;;24.02;29.37
74573;BME280;63071;51.526;-0.134;2023-02-15T01:45:31;102141.34;;;24.04;29.80
74573;BME280;63071;51.526;-0.134;2023-02-15T01:50:41;102135.56;;;24.02;29.66
74573;BME280;63071;51.526;-0.134;2023-02-15T01:53:15;102120.66;;;24.01;29.57
74573;BME280;63071;51.526;-0.134;2023-02-15T01:55:50;102125.22;;;24.00;29.46
74573;BME280;63071;51.526;-0.134;2023-02-15T01:58:19;102121.00;;;23.99;29.74
74573;BME280;63071;51.526;-0.134;2023-02-15T02:00:46;102122.91;;;23.99;29.31
74573;BME280;63071;51.526;-0.134;2023-02-15T02:03:12;102115.66;;;23.99;29.50
74573;BME280;63071;51.526;-0.134;2023-02-15T02:05:39;102115.66;;;23.99;29.39
74573;BME280;63071;51.526;-0.134;2023-02-15T02:08:06;102111.53;;;24.02;29.48
74573;BME280;63071;51.526;-0.134;2023-02-15T02:10:32;102107.53;;;23.96;29.58
74573;BME280;63071;51.526;-0.134;2023-02-15T02:13:01;102106.88;;;23.99;29.33
74573;BME280;63071;51.526;-0.134;2023-02-15T02:18:17;102094.53;;;23.94;29.37
74573;BME280;63071;51.526;-0.134;2023-02-15T02:37:24;102070.06;;;23.92;29.54
74573;BME280;63071;51.526;-0.134;2023-02-15T02:43:00;102075.78;;;23.91;29.48
74573;BME280;63071;51.526;-0.134;2023-02-15T02:45:45;102080.69;;;23.89;29.44
74573;BME280;63071;51.526;-0.134;2023-02-15T02:48:21;102078.78;;;23.89;29.30
74573;BME280;63071;51.526;-0.134;2023-02-15T02:50:48;102081.44;;;23.89;29.35
74573;BME280;63071;51.526;-0.134;2023-02-15T02:53:13;102075.66;;;23.87;29.37
74573;BME280;63071;51.526;-0.134;2023-02-15T02:55:46;102074.09;;;23.86;29.50
74573;BME280;63071;51.526;-0.134;2023-02-15T02:58:31;102077.56;;;23.87;29.58
74573;BME280;63071;51.526;-0.134;2023-02-15T03:01:22;102080.56;;;23.85;29.28
74573;BME280;63071;51.526;-0.134;2023-02-15T03:03:53;102070.66;;;23.86;29.38
74573;BME280;63071;51.526;-0.134;2023-02-15T03:06:31;102074.47;;;23.85;29.34
74573;BME280;63071;51.526;-0.134;2023-02-15T03:09:12;102064.88;;;23.84;29.47
74573;BME280;63071;51.526;-0.134;2023-02-15T03:11:44;102062.22;;;23.84;29.40
74573;BME280;63071;51.526;-0.134;2023-02-15T03:14:13;102061.44;;;23.83;29.34
74573;BME280;63071;51.526;-0.134;2023-02-15T03:16:42;102062.22;;;23.84;29.54
74573;BME280;63071;51.526;-0.134;2023-02-15T03:19:17;102058.78;;;23.83;29.43
74573;BME280;63071;51.526;-0.134;2023-02-15T03:21:48;102058.03;;;23.83;29.38
74573;BME280;63071;51.526;-0.134;2023-02-15T03:24:50;102053.44;;;23.83;28.98
74573;BME280;63071;51.526;-0.134;2023-02-15T03:27:24;102048.00;;;23.79;29.34
74573;BME280;63071;51.526;-0.134;2023-02-15T03:29:58;102042.66;;;23.79;29.29
74573;BME280;63071;51.526;-0.134;2023-02-15T03:32:27;102044.22;;;23.81;29.35
74573;BME280;63071;51.526;-0.134;2023-02-15T03:34:55;102037.31;;;23.79;29.25
74573;BME280;63071;51.526;-0.134;2023-02-15T03:37:35;102037.00;;;23.81;29.18
74573;BME280;63071;51.526;-0.134;2023-02-15T03:43:36;102022.06;;;23.80;29.18
74573;BME280;63071;51.526;-0.134;2023-02-15T03:46:14;102023.97;;;23.79;29.19
74573;BME280;63071;51.526;-0.134;2023-02-15T03:49:02;102017.53;;;23.81;29.13
74573;BME280;63071;51.526;-0.134;2023-02-15T03:51:33;102012.53;;;23.79;28.94
74573;BME280;63071;51.526;-0.134;2023-02-15T03:56:29;102005.63;;;23.78;29.06
74573;BME280;63071;51.526;-0.134;2023-02-15T03:58:55;101992.63;;;23.76;29.24
74573;BME280;63071;51.526;-0.134;2023-02-15T04:04:38;101996.84;;;23.77;28.58
74573;BME280;63071;51.526;-0.134;2023-02-15T04:07:06;101990.91;;;23.84;28.90
74573;BME280;63071;51.526;-0.134;2023-02-15T04:09:33;101994.63;;;23.79;29.20
74573;BME280;63071;51.526;-0.134;2023-02-15T04:12:17;101995.75;;;23.78;28.84
74573;BME280;63071;51.526;-0.134;2023-02-15T04:14:42;101992.63;;;23.76;29.10
74573;BME280;63071;51.526;-0.134;2023-02-15T04:17:27;101985.72;;;23.75;28.83
74573;BME280;63071;51.526;-0.134;2023-02-15T04:19:53;101980.22;;;23.68;29.14
74573;BME280;63071;51.526;-0.134;2023-02-15T04:22:36;101989.50;;;23.74;29.11
74573;BME280;63071;51.526;-0.134;2023-02-15T04:25:21;101989.50;;;23.74;28.95
74573;BME280;63071;51.526;-0.134;2023-02-15T04:27:52;101987.63;;;23.75;29.07
74573;BME280;63071;51.526;-0.134;2023-02-15T04:30:21;101984.19;;;23.74;28.94
74573;BME280;63071;51.526;-0.134;2023-02-15T04:32:47;101982.59;;;23.73;28.62
74573;BME280;63071;51.526;-0.134;2023-02-15T04:35:13;101983.38;;;23.74;28.95
74573;BME280;63071;51.526;-0.134;2023-02-15T04:37:39;101985.28;;;23.73;28.91
74573;BME280;63071;51.526;-0.134;2023-02-15T04:40:06;101988.72;;;23.74;28.98
74573;BME280;63071;51.526;-0.134;2023-02-15T04:42:32;101992.53;;;23.73;28.73
74573;BME280;63071;51.526;-0.134;2023-02-15T04:44:57;101986.03;;;23.74;28.89
74573;BME280;63071;51.526;-0.134;2023-02-15T04:47:23;101984.09;;;23.71;28.88
74573;BME280;63071;51.526;-0.134;2023-02-15T04:49:49;101979.94;;;23.73;28.91
74573;BME280;63071;51.526;-0.134;2023-02-15T04:52:14;101978.03;;;23.74;28.90
74573;BME280;63071;51.526;-0.134;2023-02-15T04:54:40;101985.28;;;23.73;29.00
74573;BME280;63071;51.526;-0.134;2023-02-15T04:57:06;101985.19;;;23.70;28.63
74573;BME280;63071;51.526;-0.134;2023-02-15T04:59:31;101974.94;;;23.72;28.97
74573;BME280;63071;51.526;-0.134;2023-02-15T05:01:57;101977.59;;;23.72;28.81
74573;BME280;63071;51.526;-0.134;2023-02-15T05:04:23;101972.63;;;23.70;28.81
74573;BME280;63071;51.526;-0.134;2023-02-15T05:06:48;101971.06;;;23.69;28.96
74573;BME280;63071;51.526;-0.134;2023-02-15T05:09:15;101970.31;;;23.69;29.04
74573;BME280;63071;51.526;-0.134;2023-02-15T05:11:41;101960.38;;;23.69;28.74
74573;BME280;63071;51.526;-0.134;2023-02-15T05:14:07;101953.16;;;23.70;28.76
74573;BME280;63071;51.526;-0.134;2023-02-15T05:16:33;101958.84;;;23.68;28.81
74573;BME280;63071;51.526;-0.134;2023-02-15T05:18:58;101956.97;;;23.69;28.63
74573;BME280;63071;51.526;-0.134;2023-02-15T05:21:24;101953.53;;;23.68;28.69
74573;BME280;63071;51.526;-0.134;2023-02-15T05:23:50;101952.72;;;23.68;28.86
74573;BME280;63071;51.526;-0.134;2023-02-15T05:26:23;101945.50;;;23.68;28.75
74573;BME280;63071;51.526;-0.134;2023-02-15T05:29:09;101948.94;;;23.69;28.90
74573;BME280;63071;51.526;-0.134;2023-02-15T05:31:35;101945.94;;;23.70;28.51
74573;BME280;63071;51.526;-0.134;2023-02-15T05:34:01;101945.94;;;23.70;28.85
74573;BME280;63071;51.526;-0.134;2023-02-15T05:36:27;101942.84;;;23.68;28.80
74573;BME280;63071;51.526;-0.134;2023-02-15T05:38:53;101937.50;;;23.68;28.80
74573;BME280;63071;51.526;-0.134;2023-02-15T05:41:18;101943.94;;;23.67;28.88
74573;BME280;63071;51.526;-0.134;2023-02-15T05:43:44;101941.72;;;23.69;28.83
74573;BME280;63071;51.526;-0.134;2023-02-15T05:46:10;101939.38;;;23.68;28.61
74573;BME280;63071;51.526;-0.134;2023-02-15T05:48:36;101935.59;;;23.69;28.71
74573;BME280;63071;51.526;-0.134;2023-02-15T05:51:10;101936.72;;;23.68;28.62
74573;BME280;63071;51.526;-0.134;2023-02-15T05:53:41;101937.84;;;23.67;28.85
74573;BME280;63071;51.526;-0.134;2023-02-15T05:56:09;101945.06;;;23.66;28.93
74573;BME280;63071;51.526;-0.134;2023-02-15T05:58:37;101942.41;;;23.66;28.84
74573;BME280;63071;51.526;-0.134;2023-02-15T06:01:11;101941.63;;;23.66;28.89
74573;BME280;63071;51.526;-0.134;2023-02-15T06:03:37;101934.75;;;23.65;28.71
74573;BME280;63071;51.526;-0.134;2023-02-15T06:06:03;101939.31;;;23.64;28.65
74573;BME280;63071;51.526;-0.134;2023-02-15T06:08:30;101935.25;;;23.70;28.76
74573;BME280;63071;51.526;-0.134;2023-02-15T06:10:56;101942.84;;;23.68;29.05
74573;BME280;63071;51.526;-0.134;2023-02-15T06:13:22;101935.59;;;23.69;29.01
74573;BME280;63071;51.526;-0.134;2023-02-15T06:15:47;101932.59;;;23.70;29.14
74573;BME280;63071;51.526;-0.134;2023-02-15T06:18:13;101936.81;;;23.71;29.11
74573;BME280;63071;51.526;-0.134;2023-02-15T06:20:38;101934.91;;;23.72;29.18
74573;BME280;63071;51.526;-0.134;2023-02-15T06:23:03;101938.00;;;23.74;29.04
74573;BME280;63071;51.526;-0.134;2023-02-15T06:25:29;101928.88;;;23.75;28.96
74573;BME280;63071;51.526;-0.134;2023-02-15T06:27:55;101933.88;;;23.76;28.93
74573;BME280;63071;51.526;-0.134;2023-02-15T06:30:20;101932.00;;;23.77;28.77
74573;BME280;63071;51.526;-0.134;2023-02-15T06:32:46;101940.78;;;23.77;28.89
74573;BME280;63071;51.526;-0.134;2023-02-15T06:35:11;101925.19;;;23.79;28.88
74573;BME280;63071;51.526;-0.134;2023-02-15T06:37:37;101923.72;;;23.82;28.77
74573;BME280;63071;51.526;-0.134;2023-02-15T06:40:03;101921.84;;;23.83;28.54
74573;BME280;63071;51.526;-0.134;2023-02-15T06:42:29;101932.97;;;23.85;28.67
74573;BME280;63071;51.526;-0.134;2023-02-15T06:44:55;101930.72;;;23.87;28.73
74573;BME280;63071;51.526;-0.134;2023-02-15T06:47:20;101922.34;;;23.88;28.63
74573;BME280;63071;51.526;-0.134;2023-02-15T06:49:45;101928.47;;;23.89;28.65
74573;BME280;63071;51.526;-0.134;2023-02-15T06:52:11;101930.00;;;23.90;28.72
74573;BME280;63071;51.526;-0.134;2023-02-15T06:54:36;101932.00;;;23.93;28.57
74573;BME280;63071;51.526;-0.134;2023-02-15T06:57:02;101930.09;;;23.93;28.54
74573;BME280;63071;51.526;-0.134;2023-02-15T06:59:27;101935.44;;;23.93;28.64
74573;BME280;63071;51.526;-0.134;2023-02-15T07:01:53;101929.34;;;23.93;28.73
74573;BME280;63071;51.526;-0.134;2023-02-15T07:04:18;101933.88;;;23.92;28.55
74573;BME280;63071;51.526;-0.134;2023-02-15T07:06:44;101940.78;;;23.93;28.95
74573;BME280;63071;51.526;-0.134;2023-02-15T07:09:10;101938.88;;;23.94;28.62
74573;BME280;63071;51.526;-0.134;2023-02-15T07:11:36;101943.03;;;23.91;28.51
74573;BME280;63071;51.526;-0.134;2023-02-15T07:14:19;101942.69;;;23.93;28.71
74573;BME280;63071;51.526;-0.134;2023-02-15T07:16:45;101939.59;;;23.91;28.58
74573;BME280;63071;51.526;-0.134;2023-02-15T07:19:10;101939.22;;;23.92;28.58
74573;BME280;63071;51.526;-0.134;2023-02-15T07:21:36;101944.94;;;23.91;28.48
74573;BME280;63071;51.526;-0.134;2023-02-15T07:24:01;101939.16;;;23.89;28.63
74573;BME280;63071;51.526;-0.134;2023-02-15T07:26:27;101941.47;;;23.90;28.63
74573;BME280;63071;51.526;-0.134;2023-02-15T07:28:52;101945.69;;;23.91;28.72
74573;BME280;63071;51.526;-0.134;2023-02-15T07:31:18;101934.94;;;23.88;28.97
74573;BME280;63071;51.526;-0.134;2023-02-15T07:33:43;101943.38;;;23.90;28.72
74573;BME280;63071;51.526;-0.134;2023-02-15T07:36:09;101940.25;;;23.88;28.79
74573;BME280;63071;51.526;-0.134;2023-02-15T07:38:39;101946.38;;;23.88;28.60
74573;BME280;63071;51.526;-0.134;2023-02-15T07:41:07;101947.94;;;23.89;28.50
74573;BME280;63071;51.526;-0.134;2023-02-15T07:43:35;101948.72;;;23.90;28.44
74573;BME280;63071;51.526;-0.134;2023-02-15T07:46:04;101938.03;;;23.90;28.63
74573;BME280;63071;51.526;-0.134;2023-02-15T07:48:30;101939.94;;;23.89;28.58
74573;BME280;63071;51.526;-0.134;2023-02-15T07:51:02;101949.47;;;23.90;28.75
74573;BME280;63071;51.526;-0.134;2023-02-15T07:53:27;101955.59;;;23.91;28.52
74573;BME280;63071;51.526;-0.134;2023-02-15T07:55:53;101954.03;;;23.90;28.67
74573;BME280;63071;51.526;-0.134;2023-02-15T07:58:19;101954.03;;;23.90;28.91
74573;BME280;63071;51.526;-0.134;2023-02-15T08:00:44;101937.06;;;23.82;28.59
74573;BME280;63071;51.526;-0.134;2023-02-15T08:03:23;101948.72;;;23.90;28.55
74573;BME280;63071;51.526;-0.134;2023-02-15T08:05:56;101957.06;;;23.88;28.35
74573;BME280;63071;51.526;-0.134;2023-02-15T08:08:21;101966.63;;;23.89;28.36
74573;BME280;63071;51.526;-0.134;2023-02-15T08:11:17;101965.16;;;23.92;28.29
74573;BME280;63071;51.526;-0.134;2023-02-15T08:14:18;101963.19;;;23.89;28.50
74573;BME280;63071;51.526;-0.134;2023-02-15T08:16:51;101965.06;;;23.88;28.59
74573;BME280;63071;51.526;-0.134;2023-02-15T08:19:26;101958.19;;;23.87;28.54
74573;BME280;63071;51.526;-0.134;2023-02-15T08:24:23;101963.53;;;23.87;28.67
74573;BME280;63071;51.526;-0.134;2023-02-15T08:26:50;101957.75;;;23.85;28.51
74573;BME280;63071;51.526;-0.134;2023-02-15T08:29:18;101952.84;;;23.87;28.51
74573;BME280;63071;51.526;-0.134;2023-02-15T08:31:45;101961.63;;;23.88;28.89
74573;BME280;63071;51.526;-0.134;2023-02-15T08:34:15;101959.28;;;23.86;28.56
74573;BME280;63071;51.526;-0.134;2023-02-15T08:36:41;101946.75;;;23.87;28.27
74573;BME280;63071;51.526;-0.134;2023-02-15T08:39:07;101952.09;;;23.87;28.43
74573;BME280;63071;51.526;-0.134;2023-02-15T08:41:34;101954.75;;;23.87;28.54
74573;BME280;63071;51.526;-0.134;2023-02-15T08:44:03;101949.41;;;23.87;28.25
74573;BME280;63071;51.526;-0.134;2023-02-15T08:46:31;101941.75;;;23.85;28.59
74573;BME280;63071;51.526;-0.134;2023-02-15T08:48:58;101944.06;;;23.87;28.35
74573;BME280;63071;51.526;-0.134;2023-02-15T08:51:26;101937.94;;;23.86;28.18
74573;BME280;63071;51.526;-0.134;2023-02-15T08:53:54;101943.66;;;23.85;28.69
74573;BME280;63071;51.526;-0.134;2023-02-15T08:56:33;101942.84;;;23.84;28.34
74573;BME280;63071;51.526;-0.134;2023-02-15T08:58:59;101948.63;;;23.86;28.48
74573;BME280;63071;51.526;-0.134;2023-02-15T09:01:27;101937.16;;;23.86;28.63
74573;BME280;63071;51.526;-0.134;2023-02-15T09:04:05;101934.50;;;23.86;28.25
74573;BME280;63071;51.526;-0.134;2023-02-15T09:06:34;101931.81;;;23.86;28.74
74573;BME280;63071;51.526;-0.134;2023-02-15T09:09:00;101933.38;;;23.87;28.56
74573;BME280;63071;51.526;-0.134;2023-02-15T09:11:28;101937.16;;;23.86;28.19
74573;BME280;63071;51.526;-0.134;2023-02-15T09:13:57;101935.25;;;23.86;28.53
74573;BME280;63071;51.526;-0.134;2023-02-15T09:16:24;101952.41;;;23.85;28.51
74573;BME280;63071;51.526;-0.134;2023-02-15T09:18:51;101945.88;;;23.83;28.60
74573;BME280;63071;51.526;-0.134;2023-02-15T09:21:20;101947.06;;;23.85;28.40
74573;BME280;63071;51.526;-0.134;2023-02-15T09:23:48;101953.63;;;23.88;28.42
74573;BME280;63071;51.526;-0.134;2023-02-15T09:26:17;101946.31;;;23.85;28.34
74573;BME280;63071;51.526;-0.134;2023-02-15T09:28:43;101943.66;;;23.85;28.68
74573;BME280;63071;51.526;-0.134;2023-02-15T09:31:17;101948.97;;;23.85;28.71
74573;BME280;63071;51.526;-0.134;2023-02-15T09:33:45;101935.53;;;23.81;28.68
74573;BME280;63071;51.526;-0.134;2023-02-15T09:38:41;101944.41;;;23.85;28.12
74573;BME280;63071;51.526;-0.134;2023-02-15T09:44:22;101941.41;;;23.87;28.57
74573;BME280;63071;51.526;-0.134;2023-02-15T09:55:22;101938.31;;;23.85;28.71
74573;BME280;63071;51.526;-0.134;2023-02-15T10:03:24;101940.97;;;23.85;28.44
74573;BME280;63071;51.526;-0.134;2023-02-15T10:06:06;101934.50;;;23.86;28.43
74573;BME280;63071;51.526;-0.134;2023-02-15T10:11:47;101932.69;;;23.90;28.36
74573;BME280;63071;51.526;-0.134;2023-02-15T10:25:46;101917.28;;;23.83;28.54
74573;BME280;63071;51.526;-0.134;2023-02-15T10:28:23;101920.03;;;23.87;28.50
74573;BME280;63071;51.526;-0.134;2023-02-15T10:30:51;101919.25;;;23.86;28.50
74573;BME280;63071;51.526;-0.134;2023-02-15T10:43:54;101930.88;;;23.94;28.66
74573;BME280;63071;51.526;-0.134;2023-02-15T10:52:13;101936.44;;;24.05;28.68
74573;BME280;63071;51.526;-0.134;2023-02-15T10:58:07;101916.72;;;24.09;28.89
74573;BME280;63071;51.526;-0.134;2023-02-15T11:03:48;101917.59;;;24.13;29.16
74573;BME280;63071;51.526;-0.134;2023-02-15T11:06:23;101908.44;;;24.14;29.52
74573;BME280;63071;51.526;-0.134;2023-02-15T11:09:00;101914.22;;;24.16;29.54
74573;BME280;63071;51.526;-0.134;2023-02-15T11:11:35;101911.63;;;24.20;29.94
74573;BME280;63071;51.526;-0.134;2023-02-15T11:16:57;101905.31;;;24.28;30.26
74573;BME280;63071;51.526;-0.134;2023-02-15T11:19:33;101897.28;;;24.28;30.17
74573;BME280;63071;51.526;-0.134;2023-02-15T11:22:06;101893.94;;;24.31;30.41
74573;BME280;63071;51.526;-0.134;2023-02-15T11:24:42;101886.41;;;24.37;30.97
74573;BME280;63071;51.526;-0.134;2023-02-15T11:31:02;101866.72;;;24.45;30.76
74573;BME280;63071;51.526;-0.134;2023-02-15T11:33:42;101872.13;;;24.49;31.14
74573;BME280;63071;51.526;-0.134;2023-02-15T11:36:15;101867.66;;;24.53;31.02
74573;BME280;63071;51.526;-0.134;2023-02-15T11:38:46;101856.63;;;24.54;31.02
74573;BME280;63071;51.526;-0.134;2023-02-15T11:41:21;101857.13;;;24.60;30.90
74573;BME280;63071;51.526;-0.134;2023-02-15T11:46:29;101846.19;;;24.69;31.42
74573;BME280;63071;51.526;-0.134;2023-02-15T11:48:54;101845.94;;;24.74;30.89
74573;BME280;63071;51.526;-0.134;2023-02-15T11:51:22;101838.31;;;24.76;31.55
74573;BME280;63071;51.526;-0.134;2023-02-15T11:53:49;101857.81;;;24.76;31.33
74573;BME280;63071;51.526;-0.134;2023-02-15T11:56:21;101856.31;;;24.79;31.43
74573;BME280;63071;51.526;-0.134;2023-02-15T11:59:06;101854.84;;;24.82;30.94
74573;BME280;63071;51.526;-0.134;2023-02-15T12:01:40;101868.28;;;24.85;31.11
74573;BME280;63071;51.526;-0.134;2023-02-15T12:04:24;101864.91;;;24.88;31.05
74573;BME280;63071;51.526;-0.134;2023-02-15T12:09:59;101860.09;;;24.97;30.80
74573;BME280;63071;51.526;-0.134;2023-02-15T12:12:35;101863.91;;;24.96;31.52
74573;BME280;63071;51.526;-0.134;2023-02-15T12:15:08;101850.53;;;24.96;31.28
74573;BME280;63071;51.526;-0.134;2023-02-15T12:17:34;101847.94;;;25.00;31.34
74573;BME280;63071;51.526;-0.134;2023-02-15T12:20:24;101846.78;;;25.01;30.97
74573;BME280;63071;51.526;-0.134;2023-02-15T12:25:52;101832.66;;;25.01;30.55
74573;BME280;63071;51.526;-0.134;2023-02-15T12:30:53;101830.03;;;25.04;30.80
74573;BME280;63071;51.526;-0.134;2023-02-15T12:33:32;101830.44;;;25.06;30.24
74573;BME280;63071;51.526;-0.134;2023-02-15T12:36:11;101815.94;;;25.07;30.40
74573;BME280;63071;51.526;-0.134;2023-02-15T12:38:38;101813.31;;;25.11;30.93
74573;BME280;63071;51.526;-0.134;2023-02-15T12:41:24;101807.97;;;25.11;30.74
74573;BME280;63071;51.526;-0.134;2023-02-15T12:49:42;101810.31;;;25.12;30.82
74573;BME280;63071;51.526;-0.134;2023-02-15T12:54:46;101808.03;;;25.14;30.08
74573;BME280;63071;51.526;-0.134;2023-02-15T12:57:32;101806.53;;;25.17;30.15
74573;BME280;63071;51.526;-0.134;2023-02-15T13:00:01;101793.59;;;25.19;30.94
74573;BME280;63071;51.526;-0.134;2023-02-15T13:02:36;101801.69;;;25.23;30.33
74573;BME280;63071;51.526;-0.134;2023-02-15T13:07:35;101797.13;;;25.23;30.28
74573;BME280;63071;51.526;-0.134;2023-02-15T13:10:02;101791.41;;;25.25;30.76
74573;BME280;63071;51.526;-0.134;2023-02-15T13:12:30;101784.16;;;25.25;29.64
74573;BME280;63071;51.526;-0.134;2023-02-15T13:14:57;101782.97;;;25.23;30.17
74573;BME280;63071;51.526;-0.134;2023-02-15T13:17:28;101784.09;;;25.22;30.66
74573;BME280;63071;51.526;-0.134;2023-02-15T13:19:59;101790.91;;;25.19;30.38
74573;BME280;63071;51.526;-0.134;2023-02-15T13:25:19;101777.53;;;25.19;29.96
74573;BME280;63071;51.526;-0.134;2023-02-15T13:28:05;101773.69;;;25.16;30.68
74573;BME280;63071;51.526;-0.134;2023-02-15T13:30:40;101766.00;;;25.15;30.99
74573;BME280;63071;51.526;-0.134;2023-02-15T13:33:25;101760.25;;;25.13;30.76
74573;BME280;63071;51.526;-0.134;2023-02-15T13:36:00;101754.13;;;25.12;31.03
74573;BME280;63071;51.526;-0.134;2023-02-15T13:38:46;101760.19;;;25.09;30.73
74573;BME280;63071;51.526;-0.134;2023-02-15T13:41:19;101753.28;;;25.08;30.36
74573;BME280;63071;51.526;-0.134;2023-02-15T13:51:53;101749.59;;;25.16;30.79
74573;BME280;63071;51.526;-0.134;2023-02-15T13:57:27;101739.38;;;25.22;30.60
74573;BME280;63071;51.526;-0.134;2023-02-15T14:08:21;101746.28;;;25.23;30.75
74573;BME280;63071;51.526;-0.134;2023-02-15T14:11:21;101742.75;;;25.19;30.98
74573;BME280;63071;51.526;-0.134;2023-02-15T14:19:38;101744.72;;;24.99;31.77
74573;BME280;63071;51.526;-0.134;2023-02-15T14:25:47;101744.66;;;24.95;31.80
74573;BME280;63071;51.526;-0.134;2023-02-15T14:28:09;101746.22;;;24.96;32.00
74573;BME280;63071;51.526;-0.134;2023-02-15T14:30:39;101731.72;;;24.97;32.25
74573;BME280;63071;51.526;-0.134;2023-02-15T14:33:37;101726.38;;;24.97;31.94
74573;BME280;63071;51.526;-0.134;2023-02-15T14:36:06;101730.19;;;24.96;32.42
74573;BME280;63071;51.526;-0.134;2023-02-15T14:38:51;101727.91;;;24.98;32.07
74573;BME280;63071;51.526;-0.134;2023-02-15T14:44:17;101734.50;;;25.05;32.02
74573;BME280;63071;51.526;-0.134;2023-02-15T14:46:57;101722.31;;;25.07;32.26
74573;BME280;63071;51.526;-0.134;2023-02-15T14:49:31;101725.41;;;25.09;31.98
74573;BME280;63071;51.526;-0.134;2023-02-15T14:52:03;101725.41;;;25.09;32.71
74573;BME280;63071;51.526;-0.134;2023-02-15T14:59:40;101736.16;;;25.13;32.73
74573;BME280;63071;51.526;-0.134;2023-02-15T15:04:35;101731.22;;;25.15;32.78
74573;BME280;63071;51.526;-0.134;2023-02-15T15:07:35;101728.97;;;25.17;32.64
74573;BME280;63071;51.526;-0.134;2023-02-15T15:10:44;101729.81;;;25.21;32.55
74573;BME280;63071;51.526;-0.134;2023-02-15T15:19:02;101721.84;;;25.25;31.66
74573;BME280;63071;51.526;-0.134;2023-02-15T15:27:40;101733.66;;;25.24;31.79
74573;BME280;63071;51.526;-0.134;2023-02-15T15:46:30;101739.03;;;25.24;32.76
74573;BME280;63071;51.526;-0.134;2023-02-15T15:49:17;101738.34;;;25.30;32.69
74573;BME280;63071;51.526;-0.134;2023-02-15T15:51:46;101727.69;;;25.34;32.03
74573;BME280;63071;51.526;-0.134;2023-02-15T15:54:23;101736.88;;;25.33;31.33
74573;BME280;63071;51.526;-0.134;2023-02-15T15:56:55;101741.44;;;25.32;31.92
74573;BME280;63071;51.526;-0.134;2023-02-15T15:59:30;101744.00;;;25.25;32.13
74573;BME280;63071;51.526;-0.134;2023-02-15T16:02:04;101742.84;;;25.23;32.33
74573;BME280;63071;51.526;-0.134;2023-02-15T16:04:32;101745.44;;;25.19;32.40
74573;BME280;63071;51.526;-0.134;2023-02-15T16:12:19;101744.44;;;25.27;32.56
74573;BME280;63071;51.526;-0.134;2023-02-15T16:14:46;101743.50;;;25.19;32.28
74573;BME280;63071;51.526;-0.134;2023-02-15T16:17:25;101741.97;;;25.18;31.81